createdAt,value
2023-02-02T00:01:45.442Z,100093.84
2023-02-02T00:04:19.222Z,100091.53
2023-02-02T00:06:46.047Z,100079.34
2023-02-02T00:09:13.470Z,100091.84
2023-02-02T00:11:39.765Z,100101.53
2023-02-02T00:14:07.807Z,100094.44
2023-02-02T00:16:34.500Z,100088.53
2023-02-02T00:19:02.213Z,100088.06
2023-02-02T00:21:28.775Z,100093.63
2023-02-02T00:23:55.355Z,100080.72
2023-02-02T00:26:21.778Z,100078.94
2023-02-02T00:28:48.170Z,100096.81
2023-02-02T00:31:14.495Z,100076.53
2023-02-02T00:33:44.356Z,100089.69
2023-02-02T00:36:10.649Z,100084.09
2023-02-02T00:38:38.031Z,100104.84
2023-02-02T00:41:05.083Z,100081.63
2023-02-02T00:43:31.395Z,100099.41
2023-02-02T00:45:57.737Z,100112.66
2023-02-02T00:48:25.798Z,100106.41
2023-02-02T00:50:52.923Z,100120.16
2023-02-02T00:53:19.527Z,100110.47
2023-02-02T00:55:45.829Z,100119.94
2023-02-02T00:58:12.153Z,100106.31
2023-02-02T01:00:38.523Z,100102.13
2023-02-02T01:03:06.889Z,100107.41
2023-02-02T01:05:34.180Z,100119.66
2023-02-02T01:08:00.702Z,100114.03
2023-02-02T01:10:27.010Z,100108.22
2023-02-02T01:12:53.475Z,100115.03
2023-02-02T01:15:19.848Z,100116.31
2023-02-02T01:17:46.267Z,100133.22
2023-02-02T01:20:16.896Z,100144.59
2023-02-02T01:22:43.214Z,100136.03
2023-02-02T01:25:09.808Z,100106.53
2023-02-02T01:27:36.171Z,100122.13
2023-02-02T01:30:02.578Z,100134.97
2023-02-02T01:32:28.851Z,100137.97
2023-02-02T01:34:55.202Z,100141.41
2023-02-02T01:37:22.194Z,100134.94
2023-02-02T01:39:48.963Z,100133.09
2023-02-02T01:42:19.723Z,100120.88
2023-02-02T01:45:04.517Z,100145.81
2023-02-02T01:47:33.536Z,100120.13
2023-02-02T01:50:00.038Z,100160.91
2023-02-02T01:52:28.382Z,100158.78
2023-02-02T01:55:00.645Z,100166.03
2023-02-02T01:57:33.396Z,100165.81
2023-02-02T02:00:01.030Z,100170.06
2023-02-02T02:02:28.020Z,100166.47
2023-02-02T02:04:55.271Z,100152.56
2023-02-02T02:07:21.973Z,100163.03
2023-02-02T02:09:48.502Z,100174.84
2023-02-02T02:12:15.521Z,100180.94
2023-02-02T02:15:02.283Z,100188.44
2023-02-02T02:17:51.560Z,100173.63
2023-02-02T02:20:55.332Z,100194.47
2023-02-02T02:23:49.201Z,100191.16
2023-02-02T02:26:34.238Z,100195.84
2023-02-02T02:29:19.463Z,100205.47
2023-02-02T02:32:04.097Z,100216.50
2023-02-02T02:34:49.317Z,100225.56
2023-02-02T02:37:26.760Z,100235.59
2023-02-02T02:39:57.602Z,100228.44
2023-02-02T02:42:25.676Z,100243.69
2023-02-02T02:44:53.179Z,100239.03
2023-02-02T02:47:20.159Z,100252.41
2023-02-02T02:49:47.782Z,100250.31
2023-02-02T02:52:14.161Z,100253.91
2023-02-02T02:54:49.732Z,100268.03
2023-02-02T02:57:18.817Z,100261.59
2023-02-02T02:59:57.018Z,100268.88
2023-02-02T03:02:41.903Z,100275.00
2023-02-02T03:05:19.209Z,100280.72
2023-02-02T03:07:50.717Z,100287.72
2023-02-02T03:10:18.984Z,100283.22
2023-02-02T03:12:49.938Z,100279.38
2023-02-02T03:15:16.869Z,100291.44
2023-02-02T03:17:43.330Z,100297.81
2023-02-02T03:20:10.438Z,100292.88
2023-02-02T03:22:36.791Z,100321.44
2023-02-02T03:25:03.344Z,100311.69
2023-02-02T03:27:29.766Z,100318.59
2023-02-02T03:29:56.151Z,100312.53
2023-02-02T03:32:22.519Z,100323.28
2023-02-02T03:34:48.805Z,100328.59
2023-02-02T03:37:15.178Z,100338.16
2023-02-02T03:39:41.455Z,100349.75
2023-02-02T03:42:07.724Z,100343.09
2023-02-02T03:44:34.061Z,100354.56
2023-02-02T03:47:00.366Z,100364.09
2023-02-02T03:49:26.642Z,100362.53
2023-02-02T03:51:52.972Z,100375.09
2023-02-02T03:54:19.297Z,100384.19
2023-02-02T03:56:45.595Z,100389.56
2023-02-02T03:59:11.901Z,100400.91
2023-02-02T04:01:38.275Z,100394.97
2023-02-02T04:04:04.630Z,100402.28
2023-02-02T04:06:30.998Z,100413.59
2023-02-02T04:08:57.369Z,100416.22
2023-02-02T04:11:23.731Z,100415.53
2023-02-02T04:13:50.045Z,100416.66
2023-02-02T04:16:16.432Z,100416.66
2023-02-02T04:18:42.854Z,100420.22
2023-02-02T04:21:09.290Z,100428.31
2023-02-02T04:23:35.884Z,100435.81
2023-02-02T04:26:02.241Z,100448.13
2023-02-02T04:28:28.625Z,100440.59
2023-02-02T04:30:55.719Z,100439.13
2023-02-02T04:33:23.214Z,100461.63
2023-02-02T04:35:49.571Z,100474.94
2023-02-02T04:38:16.100Z,100476.88
2023-02-02T04:40:43.444Z,100478.97
2023-02-02T04:43:10.197Z,100476.09
2023-02-02T04:45:36.911Z,100486.28
2023-02-02T04:48:03.453Z,100490.56
2023-02-02T04:50:30.212Z,100493.53
2023-02-02T04:52:56.539Z,100500.59
2023-02-02T04:55:23.453Z,100512.88
2023-02-02T04:57:50.257Z,100505.16
2023-02-02T05:00:17.009Z,100511.88
2023-02-02T05:02:43.413Z,100519.72
2023-02-02T05:05:11.497Z,100520.22
2023-02-02T05:07:37.897Z,100526.78
2023-02-02T05:10:04.790Z,100527.03
2023-02-02T05:12:31.197Z,100529.81
2023-02-02T05:14:57.618Z,100534.78
2023-02-02T05:17:23.947Z,100554.13
2023-02-02T05:19:50.297Z,100543.44
2023-02-02T05:22:16.603Z,100545.34
2023-02-02T05:24:42.922Z,100541.22
2023-02-02T05:27:09.250Z,100555.75
2023-02-02T05:29:35.526Z,100549.38
2023-02-02T05:32:01.865Z,100563.25
2023-02-02T05:34:28.215Z,100553.97
2023-02-02T05:36:54.509Z,100567.44
2023-02-02T05:39:20.849Z,100568.59
2023-02-02T05:41:47.187Z,100570.50
2023-02-02T05:44:13.727Z,100578.97
2023-02-02T05:46:40.116Z,100579.63
2023-02-02T05:49:06.663Z,100590.03
2023-02-02T05:51:53.639Z,100581.06
2023-02-02T05:54:20.628Z,100589.22
2023-02-02T05:56:47.780Z,100595.31
2023-02-02T05:59:14.213Z,100604.91
2023-02-02T06:01:40.572Z,100611.47
2023-02-02T06:04:06.977Z,100611.00
2023-02-02T06:06:35.479Z,100610.38
2023-02-02T06:09:02.333Z,100616.13
2023-02-02T06:11:28.663Z,100622.69
2023-02-02T06:13:55.002Z,100630.38
2023-02-02T06:16:21.366Z,100632.78
2023-02-02T06:18:48.457Z,100640.78
2023-02-02T06:21:14.896Z,100646.03
2023-02-02T06:23:45.789Z,100653.09
2023-02-02T06:26:15.735Z,100650.38
2023-02-02T06:28:42.740Z,100659.66
2023-02-02T06:31:10.970Z,100669.25
2023-02-02T06:33:37.747Z,100664.63
2023-02-02T06:36:05.083Z,100664.13
2023-02-02T06:38:31.526Z,100678.84
2023-02-02T06:41:01.501Z,100691.00
2023-02-02T06:43:28.439Z,100693.91
2023-02-02T06:45:54.787Z,100693.56
2023-02-02T06:48:21.120Z,100698.22
2023-02-02T06:50:47.442Z,100700.44
2023-02-02T06:53:13.907Z,100708.09
2023-02-02T06:55:40.203Z,100716.44
2023-02-02T06:58:06.612Z,100721.22
2023-02-02T07:00:33.227Z,100723.59
2023-02-02T07:02:59.604Z,100731.94
2023-02-02T07:05:30.117Z,100738.19
2023-02-02T07:07:56.979Z,100749.03
2023-02-02T07:11:14.446Z,100756.88
2023-02-02T07:13:09.635Z,100751.44
2023-02-02T07:15:38.446Z,100758.34
2023-02-02T07:18:04.925Z,100766.97
2023-02-02T07:20:31.475Z,100769.69
2023-02-02T07:22:57.783Z,100770.50
2023-02-02T07:25:24.401Z,100766.97
2023-02-02T07:27:54.488Z,100774.97
2023-02-02T07:30:21.424Z,100779.31
2023-02-02T07:32:48.367Z,100780.28
2023-02-02T07:35:15.247Z,100773.41
2023-02-02T07:37:41.587Z,100779.00
2023-02-02T07:40:08.704Z,100775.63
2023-02-02T07:42:35.087Z,100784.75
2023-02-02T07:45:25.595Z,100790.53
2023-02-02T07:47:47.763Z,100787.94
2023-02-02T07:50:14.099Z,100798.53
2023-02-02T07:52:40.424Z,100793.22
2023-02-02T07:55:14.472Z,100788.75
2023-02-02T07:57:41.372Z,100793.09
2023-02-02T08:00:08.034Z,100796.31
2023-02-02T08:02:34.346Z,100807.47
2023-02-02T08:05:00.702Z,100812.91
2023-02-02T08:07:27.039Z,100814.69
2023-02-02T08:09:53.431Z,100817.38
2023-02-02T08:12:21.150Z,100819.13
2023-02-02T08:14:47.516Z,100830.19
2023-02-02T08:17:13.967Z,100832.75
2023-02-02T08:19:40.290Z,100830.34
2023-02-02T08:22:06.683Z,100827.31
2023-02-02T08:24:32.973Z,100837.88
2023-02-02T08:26:59.335Z,100845.25
2023-02-02T08:29:25.791Z,100848.63
2023-02-02T08:31:52.247Z,100848.63
2023-02-02T08:34:18.724Z,100853.41
2023-02-02T08:36:45.040Z,100859.94
2023-02-02T08:39:12.181Z,100858.34
2023-02-02T08:41:38.889Z,100858.38
2023-02-02T08:44:06.065Z,100860.78
2023-02-02T08:46:32.479Z,100861.25
2023-02-02T08:48:59.025Z,100873.63
2023-02-02T08:51:25.341Z,100868.81
2023-02-02T08:53:51.615Z,100871.34
2023-02-02T08:56:19.158Z,100882.38
2023-02-02T08:58:50.146Z,100885.13
2023-02-02T09:01:18.137Z,100882.91
2023-02-02T09:03:45.013Z,100885.13
2023-02-02T09:06:13.070Z,100884.50
2023-02-02T09:08:39.699Z,100877.78
2023-02-02T09:11:14.055Z,100876.00
2023-02-02T09:13:41.056Z,100890.13
2023-02-02T09:16:09.068Z,100891.09
2023-02-02T09:18:35.458Z,100906.13
2023-02-02T09:21:03.079Z,100904.00
2023-02-02T09:23:31.079Z,100911.41
2023-02-02T09:25:57.524Z,100918.28
2023-02-02T09:28:23.957Z,100913.78
2023-02-02T09:30:51.314Z,100931.28
2023-02-02T09:33:17.675Z,100933.66
2023-02-02T09:35:43.976Z,100934.94
2023-02-02T09:38:10.293Z,100941.34
2023-02-02T09:40:36.713Z,100954.00
2023-02-02T09:43:21.621Z,100948.53
2023-02-02T09:45:54.962Z,100950.44
2023-02-02T09:48:42.692Z,100948.38
2023-02-02T09:51:18.780Z,100944.84
2023-02-02T09:53:56.118Z,100952.53
2023-02-02T09:56:38.956Z,100970.16
2023-02-02T09:59:19.339Z,100964.72
2023-02-02T10:01:48.243Z,100965.53
2023-02-02T10:04:20.613Z,100971.47
2023-02-02T10:06:48.948Z,100973.19
2023-02-02T10:09:18.096Z,100986.56
2023-02-02T10:11:48.984Z,100979.34
2023-02-02T10:14:19.642Z,100979.97
2023-02-02T10:16:47.830Z,100986.53
2023-02-02T10:19:14.933Z,100980.16
2023-02-02T10:21:46.486Z,100990.72
2023-02-02T10:24:17.814Z,100992.56
2023-02-02T10:26:48.824Z,100991.59
2023-02-02T10:29:48.547Z,101001.22
2023-02-02T10:32:23.446Z,101003.78
2023-02-02T10:35:13.808Z,101015.78
2023-02-02T10:37:40.845Z,101000.88
2023-02-02T10:40:07.173Z,101005.00
2023-02-02T10:43:12.196Z,101005.06
2023-02-02T10:45:41.521Z,101011.75
2023-02-02T10:48:15.418Z,101016.09
2023-02-02T10:50:48.074Z,101014.03
2023-02-02T10:53:15.610Z,101024.28
2023-02-02T10:55:59.916Z,101025.09
2023-02-02T10:58:29.014Z,101040.47
2023-02-02T11:00:57.905Z,101037.13
2023-02-02T11:03:33.515Z,101036.94
2023-02-02T11:06:19.906Z,101043.66
2023-02-02T11:08:48.508Z,101052.66
2023-02-02T11:11:20.426Z,101083.91
2023-02-02T11:14:04.015Z,101109.06
2023-02-02T11:16:42.151Z,101108.72
2023-02-02T11:19:15.184Z,101104.97
2023-02-02T11:21:45.022Z,101111.09
2023-02-02T11:24:28.462Z,101108.81
2023-02-02T11:26:56.950Z,101108.63
2023-02-02T11:29:32.480Z,101127.16
2023-02-02T11:32:17.262Z,101127.28
2023-02-02T11:34:43.673Z,101126.63
2023-02-02T11:37:21.134Z,101125.97
2023-02-02T11:39:47.488Z,101116.84
2023-02-02T11:42:17.609Z,101119.63
2023-02-02T11:44:46.572Z,101122.03
2023-02-02T11:47:42.063Z,101116.84
2023-02-02T11:50:17.868Z,101116.81
2023-02-02T11:52:45.669Z,101120.78
2023-02-02T11:55:17.077Z,101124.66
2023-02-02T11:58:03.342Z,101119.44
2023-02-02T12:00:30.446Z,101130.31
2023-02-02T12:02:58.184Z,101131.47
2023-02-02T12:05:35.021Z,101137.84
2023-02-02T12:08:01.513Z,101130.75
2023-02-02T12:10:40.405Z,101129.50
2023-02-02T12:13:06.706Z,101141.44
2023-02-02T12:15:47.795Z,101133.88
2023-02-02T12:18:31.506Z,101144.03
2023-02-02T12:21:15.983Z,101143.25
2023-02-02T12:24:01.143Z,101143.56
2023-02-02T12:26:29.272Z,101141.69
2023-02-02T12:29:03.596Z,101138.97
2023-02-02T12:31:42.299Z,101148.50
2023-02-02T12:34:10.748Z,101150.72
2023-02-02T12:37:00.211Z,101158.44
2023-02-02T12:39:26.495Z,101168.03
2023-02-02T12:42:14.481Z,101167.47
2023-02-02T12:44:50.898Z,101166.78
2023-02-02T12:47:17.396Z,101164.88
2023-02-02T12:49:53.084Z,101166.25
2023-02-02T12:52:34.516Z,101167.75
2023-02-02T12:55:19.670Z,101184.56
2023-02-02T12:57:46.130Z,101183.78
2023-02-02T13:00:24.044Z,101191.38
2023-02-02T13:02:59.874Z,101189.63
2023-02-02T13:05:38.516Z,101192.34
2023-02-02T13:08:37.458Z,101208.38
2023-02-02T13:11:06.808Z,101207.53
2023-02-02T13:13:37.452Z,101202.41
2023-02-02T13:16:09.023Z,101205.97
2023-02-02T13:18:38.845Z,101220.72
2023-02-02T13:21:07.677Z,101217.97
2023-02-02T13:23:36.309Z,101227.94
2023-02-02T13:26:21.342Z,101225.28
2023-02-02T13:28:57.108Z,101229.13
2023-02-02T13:31:26.600Z,101244.38
2023-02-02T13:34:05.115Z,101249.03
2023-02-02T13:36:37.423Z,101249.84
2023-02-02T13:39:12.391Z,101253.38
2023-02-02T13:41:39.143Z,101255.72
2023-02-02T13:44:13.706Z,101263.25
2023-02-02T13:46:48.106Z,101271.38
2023-02-02T13:49:23.219Z,101278.13
2023-02-02T13:51:53.832Z,101283.28
2023-02-02T13:54:20.197Z,101285.78
2023-02-02T13:56:46.472Z,101298.28
2023-02-02T13:59:14.152Z,101304.19
2023-02-02T14:01:43.014Z,101308.28
2023-02-02T14:04:19.697Z,101329.84
2023-02-02T14:06:52.546Z,101328.66
2023-02-02T14:09:19.382Z,101328.28
2023-02-02T14:11:53.385Z,101338.22
2023-02-02T14:14:34.450Z,101337.56
2023-02-02T14:17:02.019Z,101342.53
2023-02-02T14:19:28.312Z,101346.94
2023-02-02T14:22:00.679Z,101356.72
2023-02-02T14:24:27.125Z,101356.22
2023-02-02T14:26:54.494Z,101356.31
2023-02-02T14:29:29.329Z,101376.81
2023-02-02T14:31:56.775Z,101379.84
2023-02-02T14:34:53.592Z,101394.13
2023-02-02T14:37:22.761Z,101400.00
2023-02-02T14:39:52.070Z,101404.84
2023-02-02T14:42:45.206Z,101409.88
2023-02-02T14:45:11.502Z,101415.81
2023-02-02T14:47:48.747Z,101420.22
2023-02-02T14:50:17.569Z,101430.31
2023-02-02T14:52:44.168Z,101442.91
2023-02-02T14:55:18.195Z,101438.19
2023-02-02T14:57:44.596Z,101446.25
2023-02-02T15:00:21.224Z,101448.13
2023-02-02T15:02:53.177Z,101462.44
2023-02-02T15:05:28.821Z,101462.34
2023-02-02T15:08:05.960Z,101478.97
2023-02-02T15:10:48.103Z,101475.06
2023-02-02T15:13:15.984Z,101479.59
2023-02-02T15:15:43.959Z,101479.69
2023-02-02T15:18:15.833Z,101487.84
2023-02-02T15:21:01.376Z,101489.06
2023-02-02T15:23:30.604Z,101494.88
2023-02-02T15:25:59.672Z,101505.75
2023-02-02T15:28:38.256Z,101509.19
2023-02-02T15:31:16.927Z,101511.59
2023-02-02T15:33:44.863Z,101525.66
2023-02-02T15:36:13.994Z,101523.53
2023-02-02T15:38:41.832Z,101526.34
2023-02-02T15:41:16.404Z,101527.03
2023-02-02T15:43:43.040Z,101533.34
2023-02-02T15:46:13.363Z,101534.31
2023-02-02T15:48:39.978Z,101544.13
2023-02-02T15:51:16.907Z,101551.75
2023-02-02T15:53:43.213Z,101551.53
2023-02-02T15:56:24.585Z,101553.50
2023-02-02T15:58:52.448Z,101550.66
2023-02-02T16:01:21.267Z,101566.50
2023-02-02T16:03:47.730Z,101578.78
2023-02-02T16:06:14.402Z,101572.31
2023-02-02T16:08:41.372Z,101574.00
2023-02-02T16:11:13.681Z,101581.56
2023-02-02T16:13:40.757Z,101593.25
2023-02-02T16:16:20.702Z,101594.03
2023-02-02T16:18:47.197Z,101595.75
2023-02-02T16:21:24.623Z,101601.81
2023-02-02T16:23:51.346Z,101603.03
2023-02-02T16:26:19.497Z,101610.00
2023-02-02T16:28:46.759Z,101616.59
2023-02-02T16:31:14.513Z,101616.13
2023-02-02T16:33:41.781Z,101628.09
2023-02-02T16:36:31.365Z,101625.22
2023-02-02T16:38:58.461Z,101638.59
2023-02-02T16:41:29.784Z,101639.22
2023-02-02T16:43:56.201Z,101635.53
2023-02-02T16:46:45.768Z,101639.13
2023-02-02T16:49:17.906Z,101637.25
2023-02-02T16:51:45.361Z,101645.94
2023-02-02T16:54:17.781Z,101640.88
2023-02-02T16:56:46.169Z,101646.72
2023-02-02T16:59:22.374Z,101642.50
2023-02-02T17:01:51.899Z,101642.53
2023-02-02T17:04:21.064Z,101642.91
2023-02-02T17:06:52.819Z,101641.91
2023-02-02T17:09:34.518Z,101636.84
2023-02-02T17:12:01.884Z,101643.41
2023-02-02T17:14:29.930Z,101650.22
2023-02-02T17:16:56.364Z,101650.00
2023-02-02T17:19:22.783Z,101650.88
2023-02-02T17:21:49.486Z,101647.38
2023-02-02T17:24:17.067Z,101653.66
2023-02-02T17:26:43.598Z,101660.47
2023-02-02T17:29:12.627Z,101655.91
2023-02-02T17:31:39.196Z,101656.69
2023-02-02T17:34:14.594Z,101652.13
2023-02-02T17:36:41.430Z,101660.53
2023-02-02T17:39:09.522Z,101667.59
2023-02-02T17:41:37.139Z,101663.00
2023-02-02T17:44:05.287Z,101663.53
2023-02-02T17:46:32.327Z,101666.78
2023-02-02T17:48:58.800Z,101666.25
2023-02-02T17:51:25.208Z,101665.44
2023-02-02T17:53:52.122Z,101663.00
2023-02-02T17:56:19.463Z,101659.78
2023-02-02T17:58:45.917Z,101667.34
2023-02-02T18:01:12.537Z,101668.19
2023-02-02T18:03:40.497Z,101660.06
2023-02-02T18:06:07.124Z,101673.03
2023-02-02T18:08:33.781Z,101673.59
2023-02-02T18:11:00.600Z,101664.09
2023-02-02T18:13:27.068Z,101673.31
2023-02-02T18:15:53.549Z,101671.94
2023-02-02T18:18:19.954Z,101670.63
2023-02-02T18:20:47.910Z,101671.44
2023-02-02T18:23:14.842Z,101673.59
2023-02-02T18:25:41.389Z,101659.78
2023-02-02T18:28:08.152Z,101661.94
2023-02-02T18:30:34.521Z,101658.47
2023-02-02T18:33:00.955Z,101653.88
2023-02-02T18:35:28.253Z,101657.34
2023-02-02T18:37:54.668Z,101658.44
2023-02-02T18:40:21.008Z,101656.56
2023-02-02T18:42:47.392Z,101654.16
2023-02-02T18:45:14.859Z,101649.78
2023-02-02T18:47:41.635Z,101647.63
2023-02-02T18:50:08.236Z,101647.38
2023-02-02T18:52:34.845Z,101643.31
2023-02-02T18:55:01.286Z,101632.50
2023-02-02T18:57:29.086Z,101643.88
2023-02-02T18:59:55.446Z,101640.88
2023-02-02T19:02:21.911Z,101638.19
2023-02-02T19:05:06.969Z,101639.28
2023-02-02T19:07:52.302Z,101640.88
2023-02-02T19:10:18.928Z,101634.94
2023-02-02T19:13:00.870Z,101646.00
2023-02-02T19:15:27.635Z,101645.72
2023-02-02T19:17:55.104Z,101645.72
2023-02-02T19:20:23.757Z,101637.88
2023-02-02T19:22:50.264Z,101641.16
2023-02-02T19:25:17.480Z,101644.13
2023-02-02T19:27:44.015Z,101640.59
2023-02-02T19:30:19.271Z,101647.63
2023-02-02T19:32:45.857Z,101648.97
2023-02-02T19:35:20.308Z,101647.09
2023-02-02T19:37:48.370Z,101653.56
2023-02-02T19:40:22.531Z,101652.25
2023-02-02T19:42:55.610Z,101653.84
2023-02-02T19:45:24.780Z,101659.25
2023-02-02T19:47:52.405Z,101657.09
2023-02-02T19:50:20.355Z,101656.84
2023-02-02T19:52:47.431Z,101660.88
2023-02-02T19:55:25.917Z,101659.53
2023-02-02T19:57:53.139Z,101651.97
2023-02-02T20:00:27.864Z,101651.97
2023-02-02T20:03:06.659Z,101657.09
2023-02-02T20:05:36.257Z,101655.75
2023-02-02T20:08:23.267Z,101651.16
2023-02-02T20:10:50.410Z,101650.06
2023-02-02T20:13:21.633Z,101651.16
2023-02-02T20:15:48.934Z,101653.59
2023-02-02T20:18:23.755Z,101638.72
2023-02-02T20:20:52.461Z,101649.25
2023-02-02T20:23:27.954Z,101651.13
2023-02-02T20:25:54.517Z,101647.06
2023-02-02T20:28:34.162Z,101641.66
2023-02-02T20:31:04.793Z,101639.78
2023-02-02T20:33:33.125Z,101638.41
2023-02-02T20:36:00.698Z,101650.84
2023-02-02T20:38:28.715Z,101649.50
2023-02-02T20:40:55.682Z,101647.06
2023-02-02T20:43:22.214Z,101631.91
2023-02-02T20:45:48.808Z,101634.91
2023-02-02T20:48:15.348Z,101633.25
2023-02-02T20:50:41.802Z,101638.66
2023-02-02T20:53:08.766Z,101629.22
2023-02-02T20:55:38.069Z,101632.47
2023-02-02T20:58:04.952Z,101624.09
2023-02-02T21:00:31.887Z,101612.50
2023-02-02T21:02:58.265Z,101618.69
2023-02-02T21:05:25.105Z,101617.03
2023-02-02T21:07:54.643Z,101617.03
2023-02-02T21:10:22.017Z,101614.06
2023-02-02T21:12:51.478Z,101615.72
2023-02-02T21:15:19.047Z,101613.81
2023-02-02T21:17:45.445Z,101608.69
2023-02-02T21:20:12.951Z,101599.75
2023-02-02T21:22:39.260Z,101591.66
2023-02-02T21:25:06.080Z,101602.19
2023-02-02T21:27:32.482Z,101597.06
2023-02-02T21:29:58.768Z,101594.91
2023-02-02T21:32:25.079Z,101589.50
2023-02-02T21:34:51.427Z,101581.66
2023-02-02T21:37:17.816Z,101580.28
2023-02-02T21:39:49.533Z,101583.25
2023-02-02T21:42:17.733Z,101577.31
2023-02-02T21:44:45.572Z,101570.00
2023-02-02T21:47:24.061Z,101569.47
2023-02-02T21:49:50.441Z,101569.19
2023-02-02T21:52:18.093Z,101566.22
2023-02-02T21:54:45.032Z,101562.69
2023-02-02T21:57:16.760Z,101553.22
2023-02-02T21:59:45.544Z,101551.63
2023-02-02T22:02:35.334Z,101548.09
2023-02-02T22:05:01.974Z,101549.69
2023-02-02T22:07:28.770Z,101546.94
2023-02-02T22:09:56.011Z,101554.25
2023-02-02T22:12:27.373Z,101548.00
2023-02-02T22:14:57.676Z,101548.84
2023-02-02T22:17:40.257Z,101559.63
2023-02-02T22:20:15.614Z,101554.91
2023-02-02T22:22:44.751Z,101555.34
2023-02-02T22:25:16.789Z,101555.59
2023-02-02T22:27:46.320Z,101551.75
2023-02-02T22:30:18.848Z,101550.41
2023-02-02T22:32:45.134Z,101546.66
2023-02-02T22:35:11.431Z,101536.91
2023-02-02T22:37:37.729Z,101549.00
2023-02-02T22:40:04.122Z,101553.50
2023-02-02T22:42:30.501Z,101558.63
2023-02-02T22:44:56.803Z,101559.41
2023-02-02T22:47:23.163Z,101558.59
2023-02-02T22:49:49.526Z,101550.25
2023-02-02T22:52:15.844Z,101553.44
2023-02-02T22:54:42.151Z,101548.31
2023-02-02T22:57:08.525Z,101547.09
2023-02-02T22:59:35.051Z,101547.09
2023-02-02T23:02:01.463Z,101543.63
2023-02-02T23:04:27.757Z,101536.34
2023-02-02T23:06:54.071Z,101532.59
2023-02-02T23:09:20.423Z,101527.56
2023-02-02T23:11:49.142Z,101518.16
2023-02-02T23:14:15.693Z,101517.56
2023-02-02T23:16:41.996Z,101519.06
2023-02-02T23:19:08.342Z,101514.09
2023-02-02T23:21:34.658Z,101502.31
2023-02-02T23:24:00.991Z,101503.72
2023-02-02T23:26:27.388Z,101503.78
2023-02-02T23:28:53.690Z,101493.50
2023-02-02T23:31:20.083Z,101495.44
2023-02-02T23:33:46.540Z,101492.75
2023-02-02T23:36:12.890Z,101488.56
2023-02-02T23:38:39.190Z,101488.84
2023-02-02T23:41:05.637Z,101473.56
2023-02-02T23:43:32.006Z,101475.94
2023-02-02T23:46:00.055Z,101471.38
2023-02-02T23:48:26.494Z,101456.13
2023-02-02T23:50:53.226Z,101457.00
2023-02-02T23:53:19.725Z,101449.31
2023-02-02T23:55:46.373Z,101451.28
2023-02-02T23:58:13.324Z,101447.47
